sensor_id;sensor_type;location;lat;lon;timestamp;pressure;altitude;pressure_sealevel;temperature;humidity
78509;BME280;67802;50.846;7.958;2024-02-28T00:01:24;98008.47;;;19.55;33.39
78509;BME280;67802;50.846;7.958;2024-02-28T00:03:50;98015.41;;;19.56;33.32
78509;BME280;67802;50.846;7.958;2024-02-28T00:06:18;98025.94;;;19.56;33.56
78509;BME280;67802;50.846;7.958;2024-02-28T00:08:44;98030.38;;;19.55;33.44
78509;BME280;67802;50.846;7.958;2024-02-28T00:11:09;98029.53;;;19.55;33.52
78509;BME280;67802;50.846;7.958;2024-02-28T00:13:35;98039.22;;;19.54;33.49
78509;BME280;67802;50.846;7.958;2024-02-28T00:16:00;98044.41;;;19.56;33.32
78509;BME280;67802;50.846;7.958;2024-02-28T00:18:25;98047.84;;;19.56;33.40
78509;BME280;67802;50.846;7.958;2024-02-28T00:20:50;98042.59;;;19.56;33.21
78509;BME280;67802;50.846;7.958;2024-02-28T00:23:16;98046.91;;;19.57;33.34
78509;BME280;67802;50.846;7.958;2024-02-28T00:25:41;98050.38;;;19.58;33.49
78509;BME280;67802;50.846;7.958;2024-02-28T00:28:07;98052.88;;;19.60;33.30
78509;BME280;67802;50.846;7.958;2024-02-28T00:30:32;98044.16;;;19.59;33.34
78509;BME280;67802;50.846;7.958;2024-02-28T00:32:58;98047.63;;;19.60;33.36
78509;BME280;67802;50.846;7.958;2024-02-28T00:35:23;98048.47;;;19.60;33.30
78509;BME280;67802;50.846;7.958;2024-02-28T00:37:48;98052.75;;;19.61;33.34
78509;BME280;67802;50.846;7.958;2024-02-28T00:40:14;98051.78;;;19.62;33.41
78509;BME280;67802;50.846;7.958;2024-02-28T00:42:39;98059.69;;;19.62;33.24
78509;BME280;67802;50.846;7.958;2024-02-28T00:45:07;98060.56;;;19.63;33.31
78509;BME280;67802;50.846;7.958;2024-02-28T00:47:33;98058.75;;;19.63;33.13
78509;BME280;67802;50.846;7.958;2024-02-28T00:49:59;98067.38;;;19.65;33.11
78509;BME280;67802;50.846;7.958;2024-02-28T00:52:24;98058.50;;;19.66;33.16
78509;BME280;67802;50.846;7.958;2024-02-28T00:54:50;98054.91;;;19.67;33.24
78509;BME280;67802;50.846;7.958;2024-02-28T00:57:16;98046.91;;;19.69;33.09
78509;BME280;67802;50.846;7.958;2024-02-28T00:59:41;98046.06;;;19.68;32.97
78509;BME280;67802;50.846;7.958;2024-02-28T01:02:07;98050.38;;;19.69;33.04
78509;BME280;67802;50.846;7.958;2024-02-28T01:04:33;98046.78;;;19.70;33.10
78509;BME280;67802;50.846;7.958;2024-02-28T01:06:58;98052.78;;;19.72;32.99
78509;BME280;67802;50.846;7.958;2024-02-28T01:09:24;98057.09;;;19.73;33.21
78509;BME280;67802;50.846;7.958;2024-02-28T01:11:49;98056.13;;;19.75;32.98
78509;BME280;67802;50.846;7.958;2024-02-28T01:14:14;98062.13;;;19.77;33.05
78509;BME280;67802;50.846;7.958;2024-02-28T01:16:40;98061.16;;;19.78;33.02
78509;BME280;67802;50.846;7.958;2024-02-28T01:19:05;98057.56;;;19.79;32.96
78509;BME280;67802;50.846;7.958;2024-02-28T01:21:30;98068.84;;;19.81;32.99
78509;BME280;67802;50.846;7.958;2024-02-28T01:23:55;98067.06;;;19.81;33.00
78509;BME280;67802;50.846;7.958;2024-02-28T01:26:21;98068.84;;;19.81;32.96
78509;BME280;67802;50.846;7.958;2024-02-28T01:28:47;98067.78;;;19.83;32.94
78509;BME280;67802;50.846;7.958;2024-02-28T01:31:12;98067.63;;;19.85;32.84
78509;BME280;67802;50.846;7.958;2024-02-28T01:33:38;98071.97;;;19.86;32.86
78509;BME280;67802;50.846;7.958;2024-02-28T01:36:06;98071.00;;;19.87;32.83
78509;BME280;67802;50.846;7.958;2024-02-28T01:38:32;98075.22;;;19.90;32.83
78509;BME280;67802;50.846;7.958;2024-02-28T01:40:57;98073.44;;;19.90;32.56
78509;BME280;67802;50.846;7.958;2024-02-28T01:43:22;98077.63;;;19.93;32.79
78509;BME280;67802;50.846;7.958;2024-02-28T01:45:47;98065.28;;;19.93;32.67
78509;BME280;67802;50.846;7.958;2024-02-28T01:48:13;98056.41;;;19.94;32.79
78509;BME280;67802;50.846;7.958;2024-02-28T01:50:39;98065.03;;;19.96;32.77
78509;BME280;67802;50.846;7.958;2024-02-28T01:53:06;98063.22;;;19.97;32.68
78509;BME280;67802;50.846;7.958;2024-02-28T01:55:34;98060.50;;;19.98;32.64
78509;BME280;67802;50.846;7.958;2024-02-28T01:58:00;98062.16;;;19.99;32.67
78509;BME280;67802;50.846;7.958;2024-02-28T02:00:26;98073.44;;;20.01;32.56
78509;BME280;67802;50.846;7.958;2024-02-28T02:02:53;98076.06;;;20.01;32.60
78509;BME280;67802;50.846;7.958;2024-02-28T02:05:18;98083.97;;;20.01;32.66
78509;BME280;67802;50.846;7.958;2024-02-28T02:07:47;98082.31;;;20.00;32.51
78509;BME280;67802;50.846;7.958;2024-02-28T02:10:13;98080.63;;;19.99;32.76
78509;BME280;67802;50.846;7.958;2024-02-28T02:12:38;98080.63;;;19.99;32.66
78509;BME280;67802;50.846;7.958;2024-02-28T02:15:04;98079.19;;;19.95;32.64
78509;BME280;67802;50.846;7.958;2024-02-28T02:17:29;98086.38;;;19.93;32.70
78509;BME280;67802;50.846;7.958;2024-02-28T02:19:55;98073.44;;;19.90;32.67
78509;BME280;67802;50.846;7.958;2024-02-28T02:22:21;98068.16;;;19.90;32.66
78509;BME280;67802;50.846;7.958;2024-02-28T02:24:48;98072.91;;;19.85;32.59
78509;BME280;67802;50.846;7.958;2024-02-28T02:27:13;98075.69;;;19.83;32.70
78509;BME280;67802;50.846;7.958;2024-02-28T02:29:38;98073.16;;;19.82;32.68
78509;BME280;67802;50.846;7.958;2024-02-28T02:32:04;98087.06;;;19.84;32.75
78509;BME280;67802;50.846;7.958;2024-02-28T02:34:29;98094.00;;;19.85;32.75
78509;BME280;67802;50.846;7.958;2024-02-28T02:36:55;98080.59;;;19.88;32.69
78509;BME280;67802;50.846;7.958;2024-02-28T02:39:20;98072.47;;;19.91;32.61
78509;BME280;67802;50.846;7.958;2024-02-28T02:41:45;98061.69;;;19.94;32.74
78509;BME280;67802;50.846;7.958;2024-02-28T02:44:12;98069.38;;;19.97;32.62
78509;BME280;67802;50.846;7.958;2024-02-28T02:46:38;98073.44;;;20.01;32.61
78509;BME280;67802;50.846;7.958;2024-02-28T02:49:04;98067.94;;;20.05;32.49
78509;BME280;67802;50.846;7.958;2024-02-28T02:51:29;98072.00;;;20.09;32.41
78509;BME280;67802;50.846;7.958;2024-02-28T02:53:54;98078.00;;;20.11;32.47
78509;BME280;67802;50.846;7.958;2024-02-28T02:56:20;98070.81;;;20.13;32.53
78509;BME280;67802;50.846;7.958;2024-02-28T02:58:45;98074.13;;;20.15;32.32
78509;BME280;67802;50.846;7.958;2024-02-28T03:01:11;98079.16;;;20.18;32.61
78509;BME280;67802;50.846;7.958;2024-02-28T03:03:36;98077.25;;;20.20;32.20
78509;BME280;67802;50.846;7.958;2024-02-28T03:06:03;98077.00;;;20.23;32.24
78509;BME280;67802;50.846;7.958;2024-02-28T03:08:30;98077.00;;;20.23;32.21
78509;BME280;67802;50.846;7.958;2024-02-28T03:10:55;98085.63;;;20.25;32.17
78509;BME280;67802;50.846;7.958;2024-02-28T03:13:20;98088.16;;;20.27;32.20
78509;BME280;67802;50.846;7.958;2024-02-28T03:15:46;98088.03;;;20.28;32.29
78509;BME280;67802;50.846;7.958;2024-02-28T03:18:11;98082.66;;;20.30;32.26
78509;BME280;67802;50.846;7.958;2024-02-28T03:20:36;98076.41;;;20.31;32.16
78509;BME280;67802;50.846;7.958;2024-02-28T03:23:04;98076.16;;;20.34;32.11
78509;BME280;67802;50.846;7.958;2024-02-28T03:25:31;98074.34;;;20.35;32.14
78509;BME280;67802;50.846;7.958;2024-02-28T03:27:58;98079.53;;;20.36;32.30
78509;BME280;67802;50.846;7.958;2024-02-28T03:30:23;98084.66;;;20.38;32.19
78509;BME280;67802;50.846;7.958;2024-02-28T03:32:49;98088.03;;;20.40;32.11
78509;BME280;67802;50.846;7.958;2024-02-28T03:35:14;98090.53;;;20.41;32.06
78509;BME280;67802;50.846;7.958;2024-02-28T03:37:40;98090.41;;;20.43;32.09
78509;BME280;67802;50.846;7.958;2024-02-28T03:40:06;98097.38;;;20.44;31.92
78509;BME280;67802;50.846;7.958;2024-02-28T03:42:31;98103.38;;;20.46;31.95
78509;BME280;67802;50.846;7.958;2024-02-28T03:44:56;98101.44;;;20.48;31.95
78509;BME280;67802;50.846;7.958;2024-02-28T03:47:22;98106.47;;;20.51;32.39
78509;BME280;67802;50.846;7.958;2024-02-28T03:49:47;98108.97;;;20.53;31.95
78509;BME280;67802;50.846;7.958;2024-02-28T03:52:12;98106.25;;;20.54;31.92
78509;BME280;67802;50.846;7.958;2024-02-28T03:54:38;98111.53;;;20.54;31.67
78509;BME280;67802;50.846;7.958;2024-02-28T03:57:03;98116.78;;;20.54;31.96
78509;BME280;67802;50.846;7.958;2024-02-28T03:59:28;98113.31;;;20.54;31.89
78509;BME280;67802;50.846;7.958;2024-02-28T04:01:54;98113.19;;;20.55;31.89
78509;BME280;67802;50.846;7.958;2024-02-28T04:04:19;98114.88;;;20.56;31.84
78509;BME280;67802;50.846;7.958;2024-02-28T04:06:44;98107.91;;;20.55;31.77
78509;BME280;67802;50.846;7.958;2024-02-28T04:09:10;98118.47;;;20.55;31.84
78509;BME280;67802;50.846;7.958;2024-02-28T04:11:37;98120.16;;;20.56;31.86
78509;BME280;67802;50.846;7.958;2024-02-28T04:14:03;98122.78;;;20.56;31.83
78509;BME280;67802;50.846;7.958;2024-02-28T04:16:28;98134.31;;;20.55;31.82
78509;BME280;67802;50.846;7.958;2024-02-28T04:18:53;98138.63;;;20.56;31.86
78509;BME280;67802;50.846;7.958;2024-02-28T04:21:19;98136.97;;;20.44;31.40
78509;BME280;67802;50.846;7.958;2024-02-28T04:23:44;98140.94;;;20.27;31.88
78509;BME280;67802;50.846;7.958;2024-02-28T04:26:09;98135.75;;;20.25;31.98
78509;BME280;67802;50.846;7.958;2024-02-28T04:28:35;98137.91;;;20.31;32.08
78509;BME280;67802;50.846;7.958;2024-02-28T04:31:00;98137.69;;;20.35;31.97
78509;BME280;67802;50.846;7.958;2024-02-28T04:33:25;98145.34;;;20.38;32.02
78509;BME280;67802;50.846;7.958;2024-02-28T04:35:51;98147.75;;;20.41;31.81
78509;BME280;67802;50.846;7.958;2024-02-28T04:38:16;98144.97;;;20.42;31.96
78509;BME280;67802;50.846;7.958;2024-02-28T04:40:41;98155.44;;;20.44;31.87
78509;BME280;67802;50.846;7.958;2024-02-28T04:43:06;98150.88;;;20.46;31.92
78509;BME280;67802;50.846;7.958;2024-02-28T04:45:32;98164.78;;;20.48;31.89
78509;BME280;67802;50.846;7.958;2024-02-28T04:47:57;98148.94;;;20.48;31.86
78509;BME280;67802;50.846;7.958;2024-02-28T04:50:23;98149.66;;;20.50;31.88
78509;BME280;67802;50.846;7.958;2024-02-28T04:52:48;98161.19;;;20.49;31.80
78509;BME280;67802;50.846;7.958;2024-02-28T04:55:13;98154.22;;;20.48;31.80
78509;BME280;67802;50.846;7.958;2024-02-28T04:57:39;98155.78;;;20.51;31.81
78509;BME280;67802;50.846;7.958;2024-02-28T05:00:05;98155.06;;;20.49;31.79
78509;BME280;67802;50.846;7.958;2024-02-28T05:02:30;98167.28;;;20.50;31.72
78509;BME280;67802;50.846;7.958;2024-02-28T05:04:55;98163.09;;;20.47;31.77
78509;BME280;67802;50.846;7.958;2024-02-28T05:07:21;98167.53;;;20.46;31.79
78509;BME280;67802;50.846;7.958;2024-02-28T05:09:47;98170.28;;;20.45;31.71
78509;BME280;67802;50.846;7.958;2024-02-28T05:12:12;98169.44;;;20.44;31.87
78509;BME280;67802;50.846;7.958;2024-02-28T05:14:38;98176.53;;;20.44;31.69
78509;BME280;67802;50.846;7.958;2024-02-28T05:17:03;98177.34;;;20.44;31.76
78509;BME280;67802;50.846;7.958;2024-02-28T05:19:29;98178.31;;;20.43;31.71
78509;BME280;67802;50.846;7.958;2024-02-28T05:21:54;98177.50;;;20.43;31.86
78509;BME280;67802;50.846;7.958;2024-02-28T05:24:19;98175.81;;;20.42;31.70
78509;BME280;67802;50.846;7.958;2024-02-28T05:26:44;98173.19;;;20.42;31.72
78509;BME280;67802;50.846;7.958;2024-02-28T05:29:10;98163.59;;;20.41;31.70
78509;BME280;67802;50.846;7.958;2024-02-28T05:31:35;98171.50;;;20.41;31.72
78509;BME280;67802;50.846;7.958;2024-02-28T05:34:03;98167.19;;;20.40;31.76
78509;BME280;67802;50.846;7.958;2024-02-28T05:36:29;98176.91;;;20.39;31.68
78509;BME280;67802;50.846;7.958;2024-02-28T05:38:56;98184.81;;;20.39;31.74
78509;BME280;67802;50.846;7.958;2024-02-28T05:41:22;98183.00;;;20.40;31.52
78509;BME280;67802;50.846;7.958;2024-02-28T05:43:48;98198.00;;;20.39;31.75
78509;BME280;67802;50.846;7.958;2024-02-28T05:46:15;98197.16;;;20.39;31.29
78509;BME280;67802;50.846;7.958;2024-02-28T05:48:41;98197.16;;;20.39;31.75
78509;BME280;67802;50.846;7.958;2024-02-28T05:51:06;98211.22;;;20.39;31.66
78509;BME280;67802;50.846;7.958;2024-02-28T05:53:32;98214.66;;;20.40;31.72
78509;BME280;67802;50.846;7.958;2024-02-28T05:56:01;98206.75;;;20.40;31.82
78509;BME280;67802;50.846;7.958;2024-02-28T05:58:26;98211.06;;;20.41;31.70
78509;BME280;67802;50.846;7.958;2024-02-28T06:00:51;98213.72;;;20.41;31.55
78509;BME280;67802;50.846;7.958;2024-02-28T06:03:17;98205.66;;;20.42;31.63
78509;BME280;67802;50.846;7.958;2024-02-28T06:05:42;98212.75;;;20.42;31.66
78509;BME280;67802;50.846;7.958;2024-02-28T06:08:08;98216.22;;;20.42;31.65
78509;BME280;67802;50.846;7.958;2024-02-28T06:10:33;98216.13;;;20.44;31.65
78509;BME280;67802;50.846;7.958;2024-02-28T06:12:59;98218.63;;;20.45;31.62
78509;BME280;67802;50.846;7.958;2024-02-28T06:15:25;98224.75;;;20.46;31.72
78509;BME280;67802;50.846;7.958;2024-02-28T06:17:51;98226.44;;;20.47;31.68
78509;BME280;67802;50.846;7.958;2024-02-28T06:20:16;98238.66;;;20.48;31.57
78509;BME280;67802;50.846;7.958;2024-02-28T06:22:41;98243.94;;;20.48;31.77
78509;BME280;67802;50.846;7.958;2024-02-28T06:25:07;98244.66;;;20.50;31.69
78509;BME280;67802;50.846;7.958;2024-02-28T06:27:38;98245.38;;;20.52;31.51
78509;BME280;67802;50.846;7.958;2024-02-28T06:30:05;98247.19;;;20.52;31.43
78509;BME280;67802;50.846;7.958;2024-02-28T06:32:31;98247.06;;;20.53;31.54
78509;BME280;67802;50.846;7.958;2024-02-28T06:34:56;98247.78;;;20.55;31.53
78509;BME280;67802;50.846;7.958;2024-02-28T06:37:21;98251.25;;;20.56;31.54
78509;BME280;67802;50.846;7.958;2024-02-28T06:39:46;98259.06;;;20.57;31.29
78509;BME280;67802;50.846;7.958;2024-02-28T06:42:12;98260.75;;;20.58;31.37
78509;BME280;67802;50.846;7.958;2024-02-28T06:44:37;98253.56;;;20.60;31.33
78509;BME280;67802;50.846;7.958;2024-02-28T06:47:02;98264.94;;;20.61;31.27
78509;BME280;67802;50.846;7.958;2024-02-28T06:49:28;98260.50;;;20.61;31.40
78509;BME280;67802;50.846;7.958;2024-02-28T06:51:53;98266.50;;;20.64;31.39
78509;BME280;67802;50.846;7.958;2024-02-28T06:54:20;98265.56;;;20.65;31.33
78509;BME280;67802;50.846;7.958;2024-02-28T06:56:45;98272.53;;;20.66;31.36
78509;BME280;67802;50.846;7.958;2024-02-28T06:59:10;98271.53;;;20.67;31.15
78509;BME280;67802;50.846;7.958;2024-02-28T07:01:36;98274.06;;;20.68;31.39
78509;BME280;67802;50.846;7.958;2024-02-28T07:04:01;98275.75;;;20.69;31.19
78509;BME280;67802;50.846;7.958;2024-02-28T07:06:26;98272.00;;;20.72;31.13
78509;BME280;67802;50.846;7.958;2024-02-28T07:08:52;98278.97;;;20.73;31.21
78509;BME280;67802;50.846;7.958;2024-02-28T07:11:17;98280.66;;;20.74;31.05
78509;BME280;67802;50.846;7.958;2024-02-28T07:13:42;98277.06;;;20.75;31.22
78509;BME280;67802;50.846;7.958;2024-02-28T07:16:07;98272.53;;;20.77;31.13
78509;BME280;67802;50.846;7.958;2024-02-28T07:18:33;98275.06;;;20.79;31.10
78509;BME280;67802;50.846;7.958;2024-02-28T07:20:59;98279.38;;;20.80;31.21
78509;BME280;67802;50.846;7.958;2024-02-28T07:23:24;98279.97;;;20.83;31.10
78509;BME280;67802;50.846;7.958;2024-02-28T07:25:50;98281.66;;;20.84;31.08
78509;BME280;67802;50.846;7.958;2024-02-28T07:28:15;98285.00;;;20.86;31.00
78509;BME280;67802;50.846;7.958;2024-02-28T07:30:40;98281.53;;;20.86;31.16
78509;BME280;67802;50.846;7.958;2024-02-28T07:33:06;98279.72;;;20.86;31.16
78509;BME280;67802;50.846;7.958;2024-02-28T07:35:31;98277.09;;;20.86;30.99
78509;BME280;67802;50.846;7.958;2024-02-28T07:37:56;98283.34;;;20.85;30.92
78509;BME280;67802;50.846;7.958;2024-02-28T07:40:21;98286.81;;;20.86;30.97
78509;BME280;67802;50.846;7.958;2024-02-28T07:42:47;98290.28;;;20.86;31.01
78509;BME280;67802;50.846;7.958;2024-02-28T07:45:12;98288.63;;;20.85;31.07
78509;BME280;67802;50.846;7.958;2024-02-28T07:47:37;98293.91;;;20.85;31.09
78509;BME280;67802;50.846;7.958;2024-02-28T07:50:03;98298.34;;;20.85;31.02
78509;BME280;67802;50.846;7.958;2024-02-28T07:52:29;98305.31;;;20.86;31.09
78509;BME280;67802;50.846;7.958;2024-02-28T07:54:54;98298.34;;;20.85;31.08
78509;BME280;67802;50.846;7.958;2024-02-28T07:57:19;98293.16;;;20.83;30.95
78509;BME280;67802;50.846;7.958;2024-02-28T07:59:45;98301.94;;;20.84;30.93
78509;BME280;67802;50.846;7.958;2024-02-28T08:02:10;98305.41;;;20.84;30.90
78509;BME280;67802;50.846;7.958;2024-02-28T08:04:39;98317.78;;;20.84;30.94
78509;BME280;67802;50.846;7.958;2024-02-28T08:07:05;98323.06;;;20.84;30.93
78509;BME280;67802;50.846;7.958;2024-02-28T08:09:30;98323.91;;;20.84;31.02
78509;BME280;67802;50.846;7.958;2024-02-28T08:11:55;98322.22;;;20.83;31.18
78509;BME280;67802;50.846;7.958;2024-02-28T08:14:23;98336.38;;;20.82;30.94
78509;BME280;67802;50.846;7.958;2024-02-28T08:16:48;98332.78;;;20.83;30.93
78509;BME280;67802;50.846;7.958;2024-02-28T08:19:13;98333.75;;;20.82;30.96
78509;BME280;67802;50.846;7.958;2024-02-28T08:24:04;98332.06;;;20.81;31.06
78509;BME280;67802;50.846;7.958;2024-02-28T08:26:31;98329.41;;;20.81;31.08
78509;BME280;67802;50.846;7.958;2024-02-28T08:31:21;98324.13;;;20.81;30.95
78509;BME280;67802;50.846;7.958;2024-02-28T08:33:46;98335.66;;;20.80;31.01
78509;BME280;67802;50.846;7.958;2024-02-28T08:36:12;98323.31;;;20.81;30.83
78509;BME280;67802;50.846;7.958;2024-02-28T08:38:37;98322.59;;;20.79;30.95
78509;BME280;67802;50.846;7.958;2024-02-28T08:41:04;98324.38;;;20.78;30.94
78509;BME280;67802;50.846;7.958;2024-02-28T08:43:29;98325.31;;;20.77;31.02
78509;BME280;67802;50.846;7.958;2024-02-28T08:45:55;98330.72;;;20.75;31.10
78509;BME280;67802;50.846;7.958;2024-02-28T08:48:20;98334.31;;;20.74;31.04
78509;BME280;67802;50.846;7.958;2024-02-28T08:50:45;98344.16;;;20.72;31.03
78509;BME280;67802;50.846;7.958;2024-02-28T08:53:11;98342.47;;;20.71;31.12
78509;BME280;67802;50.846;7.958;2024-02-28T08:55:36;98354.94;;;20.69;31.04
78509;BME280;67802;50.846;7.958;2024-02-28T08:58:01;98349.75;;;20.68;31.06
78509;BME280;67802;50.846;7.958;2024-02-28T09:00:27;98344.47;;;20.68;31.04
78509;BME280;67802;50.846;7.958;2024-02-28T09:02:52;98337.53;;;20.67;31.02
78509;BME280;67802;50.846;7.958;2024-02-28T09:05:17;98348.22;;;20.65;30.94
78509;BME280;67802;50.846;7.958;2024-02-28T09:07:43;98347.38;;;20.65;31.09
78509;BME280;67802;50.846;7.958;2024-02-28T09:10:09;98357.94;;;20.65;30.69
78509;BME280;67802;50.846;7.958;2024-02-28T09:12:34;98357.22;;;20.63;31.02
78509;BME280;67802;50.846;7.958;2024-02-28T09:15:00;98359.84;;;20.63;31.19
78509;BME280;67802;50.846;7.958;2024-02-28T09:17:25;98366.09;;;20.61;30.98
78509;BME280;67802;50.846;7.958;2024-02-28T09:19:52;98364.41;;;20.60;31.08
78509;BME280;67802;50.846;7.958;2024-02-28T09:22:17;98368.00;;;20.59;31.11
78509;BME280;67802;50.846;7.958;2024-02-28T09:24:43;98379.63;;;20.57;31.12
78509;BME280;67802;50.846;7.958;2024-02-28T09:27:08;98369.53;;;20.51;31.03
78509;BME280;67802;50.846;7.958;2024-02-28T09:29:33;98377.91;;;20.44;31.06
78509;BME280;67802;50.846;7.958;2024-02-28T09:31:59;98375.63;;;20.40;30.93
78509;BME280;67802;50.846;7.958;2024-02-28T09:34:24;98373.63;;;20.19;31.20
78509;BME280;67802;50.846;7.958;2024-02-28T09:36:49;98362.25;;;19.94;31.47
78509;BME280;67802;50.846;7.958;2024-02-28T09:39:15;98363.56;;;19.76;31.79
78509;BME280;67802;50.846;7.958;2024-02-28T09:41:43;98365.66;;;19.83;31.83
78509;BME280;67802;50.846;7.958;2024-02-28T09:44:11;98362.03;;;19.97;32.12
78509;BME280;67802;50.846;7.958;2024-02-28T09:46:37;98372.53;;;20.10;31.80
78509;BME280;67802;50.846;7.958;2024-02-28T09:49:07;98379.41;;;20.24;31.81
78509;BME280;67802;50.846;7.958;2024-02-28T09:51:36;98373.44;;;20.34;31.82
78509;BME280;67802;50.846;7.958;2024-02-28T09:54:05;98381.63;;;20.42;31.72
78509;BME280;67802;50.846;7.958;2024-02-28T09:56:31;98389.81;;;20.50;31.70
78509;BME280;67802;50.846;7.958;2024-02-28T09:58:57;98389.34;;;20.56;31.72
78509;BME280;67802;50.846;7.958;2024-02-28T10:01:23;98386.34;;;20.61;31.75
78509;BME280;67802;50.846;7.958;2024-02-28T10:03:51;98385.03;;;20.67;31.60
78509;BME280;67802;50.846;7.958;2024-02-28T10:06:18;98385.66;;;20.70;31.65
78509;BME280;67802;50.846;7.958;2024-02-28T10:08:44;98386.25;;;20.74;31.58
78509;BME280;67802;50.846;7.958;2024-02-28T10:11:17;98386.06;;;20.77;31.55
78509;BME280;67802;50.846;7.958;2024-02-28T10:13:42;98397.09;;;20.82;31.52
78509;BME280;67802;50.846;7.958;2024-02-28T10:16:08;98393.41;;;20.85;31.47
78509;BME280;67802;50.846;7.958;2024-02-28T10:18:33;98394.97;;;20.87;31.52
78509;BME280;67802;50.846;7.958;2024-02-28T10:20:59;98397.38;;;20.90;31.41
78509;BME280;67802;50.846;7.958;2024-02-28T10:23:26;98400.72;;;20.93;31.16
78509;BME280;67802;50.846;7.958;2024-02-28T10:25:52;98399.63;;;20.95;31.47
78509;BME280;67802;50.846;7.958;2024-02-28T10:28:18;98388.97;;;20.97;31.32
78509;BME280;67802;50.846;7.958;2024-02-28T10:30:43;98394.97;;;20.99;31.64
78509;BME280;67802;50.846;7.958;2024-02-28T10:33:13;98393.06;;;21.01;31.43
78509;BME280;67802;50.846;7.958;2024-02-28T10:35:42;98387.63;;;21.02;31.53
78509;BME280;67802;50.846;7.958;2024-02-28T10:38:10;98394.50;;;21.05;31.50
78509;BME280;67802;50.846;7.958;2024-02-28T10:40:36;98395.31;;;20.83;30.37
78509;BME280;67802;50.846;7.958;2024-02-28T10:43:02;98397.88;;;20.24;31.30
78509;BME280;67802;50.846;7.958;2024-02-28T10:45:30;98394.50;;;20.22;31.54
78509;BME280;67802;50.846;7.958;2024-02-28T10:47:56;98387.00;;;20.29;31.64
78509;BME280;67802;50.846;7.958;2024-02-28T10:50:22;98390.16;;;20.10;31.65
78509;BME280;67802;50.846;7.958;2024-02-28T10:52:48;98386.53;;;19.86;31.94
78509;BME280;67802;50.846;7.958;2024-02-28T10:55:22;98378.09;;;19.94;32.13
78509;BME280;67802;50.846;7.958;2024-02-28T10:58:03;98384.75;;;20.11;32.11
78509;BME280;67802;50.846;7.958;2024-02-28T11:00:33;98386.13;;;20.28;31.83
78509;BME280;67802;50.846;7.958;2024-02-28T11:02:59;98385.22;;;20.41;31.95
78509;BME280;67802;50.846;7.958;2024-02-28T11:05:35;98394.00;;;20.53;31.89
78509;BME280;67802;50.846;7.958;2024-02-28T11:08:01;98389.84;;;20.61;31.81
78509;BME280;67802;50.846;7.958;2024-02-28T11:10:31;98391.03;;;20.69;31.80
78509;BME280;67802;50.846;7.958;2024-02-28T11:12:57;98385.28;;;20.75;31.67
78509;BME280;67802;50.846;7.958;2024-02-28T11:15:24;98375.25;;;20.80;31.72
78509;BME280;67802;50.846;7.958;2024-02-28T11:17:51;98373.09;;;20.85;31.72
78509;BME280;67802;50.846;7.958;2024-02-28T11:20:17;98362.31;;;20.88;31.65
78509;BME280;67802;50.846;7.958;2024-02-28T11:22:42;98356.78;;;20.92;31.43
78509;BME280;67802;50.846;7.958;2024-02-28T11:25:08;98363.53;;;20.96;31.54
78509;BME280;67802;50.846;7.958;2024-02-28T11:27:34;98360.75;;;20.97;31.61
78509;BME280;67802;50.846;7.958;2024-02-28T11:30:10;98367.84;;;20.97;31.47
78509;BME280;67802;50.846;7.958;2024-02-28T11:32:35;98359.41;;;20.80;30.67
78509;BME280;67802;50.846;7.958;2024-02-28T11:35:01;98358.91;;;20.75;31.33
78509;BME280;67802;50.846;7.958;2024-02-28T11:37:26;98364.94;;;20.77;31.58
78509;BME280;67802;50.846;7.958;2024-02-28T11:39:52;98363.75;;;20.81;31.46
78509;BME280;67802;50.846;7.958;2024-02-28T11:42:17;98350.31;;;20.84;31.52
78509;BME280;67802;50.846;7.958;2024-02-28T11:44:43;98353.66;;;20.86;31.63
78509;BME280;67802;50.846;7.958;2024-02-28T11:47:09;98346.59;;;20.87;31.38
78509;BME280;67802;50.846;7.958;2024-02-28T11:49:37;98352.72;;;20.87;31.51
78509;BME280;67802;50.846;7.958;2024-02-28T11:52:04;98347.56;;;20.86;31.46
78509;BME280;67802;50.846;7.958;2024-02-28T11:54:30;98352.84;;;20.86;31.49
78509;BME280;67802;50.846;7.958;2024-02-28T11:56:55;98348.38;;;20.86;31.44
78509;BME280;67802;50.846;7.958;2024-02-28T11:59:20;98347.56;;;20.86;31.42
78509;BME280;67802;50.846;7.958;2024-02-28T12:01:46;98353.66;;;20.86;31.57
78509;BME280;67802;50.846;7.958;2024-02-28T12:04:12;98342.28;;;20.86;31.53
78509;BME280;67802;50.846;7.958;2024-02-28T12:06:38;98347.56;;;20.86;31.62
78509;BME280;67802;50.846;7.958;2024-02-28T12:09:07;98335.31;;;20.85;31.60
78509;BME280;67802;50.846;7.958;2024-02-28T12:11:35;98334.59;;;20.83;31.64
78509;BME280;67802;50.846;7.958;2024-02-28T12:14:04;98334.59;;;20.83;31.73
78509;BME280;67802;50.846;7.958;2024-02-28T12:16:32;98329.41;;;20.81;31.71
78509;BME280;67802;50.846;7.958;2024-02-28T12:18:57;98331.34;;;20.79;31.57
78509;BME280;67802;50.846;7.958;2024-02-28T12:21:22;98331.34;;;20.79;31.72
78509;BME280;67802;50.846;7.958;2024-02-28T12:23:49;98330.50;;;20.79;31.72
78509;BME280;67802;50.846;7.958;2024-02-28T12:26:16;98320.25;;;20.74;31.65
78509;BME280;67802;50.846;7.958;2024-02-28T12:28:43;98327.69;;;20.57;31.60
78509;BME280;67802;50.846;7.958;2024-02-28T12:31:08;98327.94;;;20.54;31.74
78509;BME280;67802;50.846;7.958;2024-02-28T12:33:36;98321.69;;;20.55;31.81
78509;BME280;67802;50.846;7.958;2024-02-28T12:36:02;98318.81;;;20.58;31.87
78509;BME280;67802;50.846;7.958;2024-02-28T12:38:29;98321.31;;;20.60;31.81
78509;BME280;67802;50.846;7.958;2024-02-28T12:40:54;98314.25;;;20.60;31.77
78509;BME280;67802;50.846;7.958;2024-02-28T12:43:20;98308.13;;;20.60;31.82
78509;BME280;67802;50.846;7.958;2024-02-28T12:45:45;98306.34;;;20.60;31.81
78509;BME280;67802;50.846;7.958;2024-02-28T12:48:10;98302.03;;;20.59;31.55
78509;BME280;67802;50.846;7.958;2024-02-28T12:50:36;98297.69;;;20.58;31.74
78509;BME280;67802;50.846;7.958;2024-02-28T12:53:01;98296.03;;;20.57;31.66
78509;BME280;67802;50.846;7.958;2024-02-28T12:55:26;98289.06;;;20.56;31.68
78509;BME280;67802;50.846;7.958;2024-02-28T12:57:52;98286.53;;;20.55;31.77